TimeEDT,TemperatureF,Dew PointF,Humidity,Sea Level PressureIn,VisibilityMPH,Wind Direction,Wind SpeedMPH,Gust SpeedMPH,PrecipitationIn,Events,Conditions,WindDirDegrees,DateUTC
12:53 AM,54.0,44.1,69,30.14,10.0,NE,10.4,-,N/A,,Overcast,50,2013-05-04 04:53:00
1:53 AM,52.0,44.1,74,30.13,10.0,NE,9.2,-,N/A,,Partly Cloudy,40,2013-05-04 05:53:00
2:53 AM,51.1,44.1,77,30.11,10.0,NE,11.5,18.4,N/A,,Clear,40,2013-05-04 06:53:00
3:53 AM,51.1,45.0,80,30.10,10.0,NE,11.5,-,N/A,,Mostly Cloudy,50,2013-05-04 07:53:00
4:53 AM,50.0,45.0,83,30.10,10.0,NE,9.2,-,N/A,,Scattered Clouds,40,2013-05-04 08:53:00
5:53 AM,51.1,45.0,80,30.10,10.0,NNE,11.5,-,N/A,,Overcast,30,2013-05-04 09:53:00
6:01 AM,51.8,46.4,82,30.12,10.0,NE,9.2,-,N/A,,Overcast,40,2013-05-04 10:01:00
6:53 AM,51.1,46.9,86,30.12,4.0,NE,8.1,-,N/A,,Overcast,40,2013-05-04 10:53:00
7:36 AM,51.8,48.2,88,30.14,1.8,NNE,9.2,-,N/A,,Overcast,30,2013-05-04 11:36:00
7:53 AM,51.1,48.9,92,30.12,1.8,NNE,10.4,-,0.01,,Overcast,30,2013-05-04 11:53:00
7:56 AM,51.8,48.2,88,30.14,2.0,NNE,8.1,-,N/A,,Overcast,30,2013-05-04 11:56:00
8:01 AM,50.0,48.2,94,30.14,3.0,NNE,9.2,-,N/A,,Overcast,30,2013-05-04 12:01:00
8:29 AM,51.8,48.2,88,30.14,2.0,NNE,9.2,-,N/A,,Overcast,30,2013-05-04 12:29:00
8:41 AM,51.8,48.2,88,30.15,5.0,NNE,9.2,-,N/A,,Overcast,30,2013-05-04 12:41:00
8:51 AM,51.8,50.0,94,30.14,8.0,NNE,8.1,-,N/A,,Overcast,30,2013-05-04 12:51:00
8:53 AM,51.1,48.9,92,30.13,8.0,NNE,8.1,-,N/A,,Overcast,30,2013-05-04 12:53:00
9:53 AM,53.1,50.0,89,30.12,10.0,NNE,9.2,-,N/A,,Overcast,30,2013-05-04 13:53:00
10:07 AM,53.6,48.2,82,30.13,10.0,NNE,11.5,17.3,N/A,,Overcast,30,2013-05-04 14:07:00
10:53 AM,55.0,48.9,80,30.11,10.0,NE,11.5,21.9,N/A,,Overcast,40,2013-05-04 14:53:00
11:53 AM,59.0,48.9,69,30.09,10.0,NE,10.4,-,N/A,,Mostly Cloudy,40,2013-05-04 15:53:00
12:01 PM,59.0,48.2,67,30.11,10.0,NE,10.4,18.4,N/A,,Mostly Cloudy,50,2013-05-04 16:01:00
12:53 PM,62.1,48.9,62,30.07,10.0,NNE,13.8,26.5,N/A,,Clear,30,2013-05-04 16:53:00
1:53 PM,64.9,48.9,56,30.05,10.0,NNE,16.1,23.0,N/A,,Scattered Clouds,30,2013-05-04 17:53:00
2:53 PM,66.0,50.0,56,30.03,10.0,NE,13.8,24.2,N/A,,Mostly Cloudy,40,2013-05-04 18:53:00
3:53 PM,66.9,51.1,57,30.02,10.0,NNE,10.4,19.6,N/A,,Scattered Clouds,30,2013-05-04 19:53:00
4:53 PM,66.0,51.1,59,30.02,10.0,ENE,12.7,-,N/A,,Overcast,60,2013-05-04 20:53:00
5:53 PM,64.9,50.0,58,30.02,10.0,NE,13.8,-,N/A,,Overcast,50,2013-05-04 21:53:00
6:53 PM,63.0,52.0,67,30.02,10.0,NE,8.1,-,N/A,,Overcast,50,2013-05-04 22:53:00
7:53 PM,61.0,52.0,72,30.04,10.0,NE,10.4,-,N/A,,Overcast,50,2013-05-04 23:53:00
8:53 PM,60.1,52.0,75,30.04,10.0,NE,9.2,20.7,N/A,,Overcast,50,2013-05-05 00:53:00
9:53 PM,57.9,52.0,81,30.05,10.0,NE,10.4,-,N/A,,Overcast,40,2013-05-05 01:53:00
10:16 PM,57.2,51.8,82,30.07,10.0,NE,9.2,-,N/A,,Overcast,50,2013-05-05 02:16:00
10:53 PM,57.9,51.1,78,30.04,10.0,NE,8.1,18.4,N/A,,Mostly Cloudy,50,2013-05-05 02:53:00
11:53 PM,57.9,48.0,70,30.04,10.0,ENE,12.7,17.3,N/A,,Overcast,70,2013-05-05 03:53:00